createdAt,value
2023-04-23T00:02:03.219Z,14.05
2023-04-23T00:04:37.990Z,14.70
2023-04-23T00:07:05.885Z,14.75
2023-04-23T00:09:33.506Z,14.77
2023-04-23T00:12:02.059Z,12.85
2023-04-23T00:14:29.400Z,12.88
2023-04-23T00:16:56.680Z,13.38
2023-04-23T00:19:23.483Z,15.85
2023-04-23T00:21:50.259Z,18.52
2023-04-23T00:24:17.088Z,20.58
2023-04-23T00:26:43.905Z,22.95
2023-04-23T00:29:11.074Z,25.75
2023-04-23T00:31:37.832Z,26.58
2023-04-23T00:34:04.578Z,26.50
2023-04-23T00:36:31.322Z,26.55
2023-04-23T00:38:58.020Z,25.67
2023-04-23T00:41:27.313Z,27.00
2023-04-23T00:43:58.393Z,26.40
2023-04-23T00:46:28.613Z,24.73
2023-04-23T00:48:55.708Z,23.73
2023-04-23T00:51:23.557Z,21.70
2023-04-23T00:53:51.010Z,24.30
2023-04-23T00:56:18.654Z,21.45
2023-04-23T00:58:46.114Z,19.02
2023-04-23T01:01:13.932Z,21.48
2023-04-23T01:03:44.401Z,21.33
2023-04-23T01:06:11.217Z,24.52
2023-04-23T01:08:41.008Z,25.38
2023-04-23T01:11:07.770Z,24.45
2023-04-23T01:13:35.226Z,27.40
2023-04-23T01:16:02.569Z,37.05
2023-04-23T01:18:30.065Z,37.40
2023-04-23T01:20:56.756Z,36.83
2023-04-23T01:23:23.707Z,37.80
2023-04-23T01:25:51.088Z,34.40
2023-04-23T01:28:22.072Z,28.75
2023-04-23T01:30:51.098Z,22.38
2023-04-23T01:33:19.404Z,22.38
2023-04-23T01:35:49.309Z,21.42
2023-04-23T01:38:23.494Z,21.23
2023-04-23T01:43:20.996Z,19.63
2023-04-23T01:45:47.863Z,22.20
2023-04-23T01:48:17.250Z,23.15
2023-04-23T01:50:44.309Z,22.40
2023-04-23T01:53:11.182Z,25.55
2023-04-23T01:55:47.594Z,25.95
2023-04-23T01:58:14.759Z,25.77
2023-04-23T02:00:42.003Z,24.38
2023-04-23T02:03:09.149Z,24.15
2023-04-23T02:05:37.008Z,24.73
2023-04-23T02:08:04.311Z,23.45
2023-04-23T02:10:31.775Z,24.85
2023-04-23T02:13:01.474Z,27.13
2023-04-23T02:15:28.924Z,26.85
2023-04-23T02:17:57.154Z,25.52
2023-04-23T02:20:23.983Z,28.88
2023-04-23T02:22:51.090Z,27.75
2023-04-23T02:25:23.056Z,29.77
2023-04-23T02:27:50.543Z,27.83
2023-04-23T02:30:19.249Z,30.73
2023-04-23T02:32:45.990Z,26.55
2023-04-23T02:35:12.727Z,29.25
2023-04-23T02:37:43.408Z,28.77
2023-04-23T02:40:11.284Z,30.77
2023-04-23T02:42:38.177Z,30.55
2023-04-23T02:45:05.907Z,29.15
2023-04-23T02:47:32.675Z,29.60
2023-04-23T02:49:59.391Z,29.55
2023-04-23T02:52:26.065Z,32.17
2023-04-23T02:54:53.016Z,33.00
2023-04-23T02:57:23.539Z,33.38
2023-04-23T02:59:53.136Z,32.38
2023-04-23T03:02:23.922Z,39.30
2023-04-23T03:04:51.379Z,38.78
2023-04-23T03:07:18.120Z,44.38
2023-04-23T03:09:44.847Z,47.05
2023-04-23T03:12:11.680Z,47.28
2023-04-23T03:14:38.424Z,49.55
2023-04-23T03:17:06.434Z,47.97
2023-04-23T03:19:36.166Z,43.95
2023-04-23T03:22:05.640Z,49.47
2023-04-23T03:24:35.359Z,49.55
2023-04-23T03:27:02.219Z,46.30
2023-04-23T03:29:29.105Z,48.85
2023-04-23T03:31:56.542Z,47.72
2023-04-23T03:34:23.235Z,49.63
2023-04-23T03:36:51.057Z,48.85
2023-04-23T03:39:17.928Z,45.75
2023-04-23T03:41:44.945Z,45.13
2023-04-23T03:44:11.645Z,47.00
2023-04-23T03:46:38.446Z,43.92
2023-04-23T03:49:05.358Z,41.35
2023-04-23T03:51:32.431Z,41.17
2023-04-23T03:53:59.161Z,37.28
2023-04-23T03:56:27.141Z,38.25
2023-04-23T03:58:56.814Z,40.78
2023-04-23T04:01:23.568Z,42.95
2023-04-23T04:03:50.328Z,39.53
2023-04-23T04:06:17.113Z,39.10
2023-04-23T04:08:46.225Z,39.92
2023-04-23T04:11:12.877Z,41.38
2023-04-23T04:13:41.947Z,42.33
2023-04-23T04:16:08.961Z,40.65
2023-04-23T04:18:35.861Z,36.78
2023-04-23T04:21:02.604Z,39.15
2023-04-23T04:23:32.286Z,37.58
2023-04-23T04:25:59.889Z,38.92
2023-04-23T04:28:26.677Z,34.67
2023-04-23T04:30:54.967Z,33.50
2023-04-23T04:33:21.750Z,27.90
2023-04-23T04:35:51.008Z,25.30
2023-04-23T04:38:18.324Z,21.08
2023-04-23T04:40:45.752Z,20.75
2023-04-23T04:43:12.388Z,20.80
2023-04-23T04:45:39.081Z,17.95
2023-04-23T04:48:06.043Z,17.70
2023-04-23T04:50:32.753Z,18.30
2023-04-23T04:52:59.688Z,19.15
2023-04-23T04:55:27.119Z,16.67
2023-04-23T04:57:56.915Z,22.08
2023-04-23T05:00:29.972Z,18.42
2023-04-23T05:03:01.057Z,17.85
2023-04-23T05:05:28.496Z,18.10
2023-04-23T05:08:01.111Z,14.30
2023-04-23T05:10:29.506Z,16.35
2023-04-23T05:13:00.607Z,16.88
2023-04-23T05:15:27.705Z,14.10
2023-04-23T05:17:57.347Z,12.75
2023-04-23T05:20:27.329Z,11.30
2023-04-23T05:22:59.413Z,12.00
2023-04-23T05:25:26.134Z,10.18
2023-04-23T05:27:53.386Z,14.93
2023-04-23T05:30:20.227Z,10.68
2023-04-23T05:32:47.184Z,11.75
2023-04-23T05:35:13.894Z,11.40
2023-04-23T05:37:41.558Z,10.60
2023-04-23T05:48:13.996Z,10.40
2023-04-23T05:53:22.813Z,10.05
2023-04-23T05:55:49.667Z,9.55
2023-04-23T06:00:59.842Z,9.63
2023-04-23T06:03:30.367Z,8.52
2023-04-23T06:05:57.936Z,9.13
2023-04-23T06:08:25.428Z,8.68
2023-04-23T06:29:43.921Z,8.15
2023-04-23T06:32:10.860Z,9.15
2023-04-23T06:34:43.979Z,8.10
2023-04-23T06:37:19.102Z,8.60
2023-04-23T06:39:46.075Z,8.95
2023-04-23T06:47:42.450Z,6.90
2023-04-23T06:50:09.485Z,6.80
2023-04-23T06:52:36.457Z,6.97
2023-04-23T06:55:03.975Z,6.97
2023-04-23T06:57:30.687Z,7.53
2023-04-23T06:59:57.447Z,7.72
2023-04-23T07:02:24.356Z,7.40
2023-04-23T07:04:51.335Z,8.60
2023-04-23T07:07:18.271Z,7.47
2023-04-23T07:09:44.945Z,7.50
2023-04-23T07:12:11.796Z,8.50
2023-04-23T07:14:38.638Z,7.68
2023-04-23T07:17:05.675Z,8.02
2023-04-23T07:19:32.448Z,8.50
2023-04-23T07:21:59.185Z,8.43
2023-04-23T07:24:26.919Z,7.63
2023-04-23T07:26:56.567Z,8.48
2023-04-23T07:29:23.352Z,7.60
2023-04-23T07:31:51.313Z,7.20
2023-04-23T07:34:17.989Z,7.40
2023-04-23T07:36:44.811Z,8.20
2023-04-23T07:39:11.542Z,8.38
2023-04-23T07:41:38.578Z,8.27
2023-04-23T07:44:05.638Z,7.68
2023-04-23T07:54:35.536Z,7.82
2023-04-23T07:57:03.005Z,7.45
2023-04-23T07:59:30.443Z,7.57
2023-04-23T08:01:57.292Z,7.95
2023-04-23T08:23:20.310Z,7.50
2023-04-23T08:25:47.169Z,7.88
2023-04-23T08:28:13.799Z,8.15
2023-04-23T08:30:49.473Z,8.50
2023-04-23T08:33:19.454Z,8.00
2023-04-23T08:35:47.005Z,8.77
2023-04-23T08:38:13.741Z,8.93
2023-04-23T08:40:42.855Z,8.77
2023-04-23T08:43:19.765Z,8.40
2023-04-23T08:45:49.432Z,9.20
2023-04-23T08:48:16.769Z,8.30
2023-04-23T08:50:48.241Z,8.38
2023-04-23T08:53:25.554Z,7.75
2023-04-23T08:55:57.348Z,7.85
2023-04-23T08:58:26.040Z,8.93
2023-04-23T09:00:58.049Z,9.05
2023-04-23T09:03:31.712Z,8.32
2023-04-23T09:05:59.041Z,8.25
2023-04-23T09:08:26.308Z,8.75
2023-04-23T09:11:00.880Z,8.13
2023-04-23T09:13:33.627Z,9.80
2023-04-23T09:16:00.345Z,8.35
2023-04-23T09:18:27.064Z,7.75
2023-04-23T09:20:57.412Z,8.00
2023-04-23T09:23:24.044Z,8.13
2023-04-23T09:25:50.793Z,9.40
2023-04-23T09:28:17.885Z,8.15
2023-04-23T09:30:46.225Z,8.38
2023-04-23T09:33:16.361Z,7.63
2023-04-23T09:35:43.589Z,8.30
2023-04-23T09:38:10.698Z,8.70
2023-04-23T09:40:38.693Z,8.75
2023-04-23T09:43:10.124Z,8.52
2023-04-23T09:45:36.941Z,8.23
2023-04-23T09:48:04.522Z,8.60
2023-04-23T09:50:37.060Z,8.95
2023-04-23T09:53:06.256Z,9.75
2023-04-23T09:55:41.757Z,9.75
2023-04-23T09:58:17.045Z,9.73
2023-04-23T10:00:43.822Z,10.05
2023-04-23T10:03:11.947Z,12.10
2023-04-23T10:05:59.691Z,9.02
2023-04-23T10:08:28.916Z,10.15
2023-04-23T10:11:13.762Z,10.07
2023-04-23T10:13:45.603Z,9.65
2023-04-23T10:16:22.188Z,9.25
2023-04-23T10:18:53.782Z,8.77
2023-04-23T10:21:36.640Z,8.90
2023-04-23T10:24:14.859Z,8.85
2023-04-23T10:26:51.824Z,8.18
2023-04-23T10:29:26.990Z,9.43
2023-04-23T10:32:00.796Z,9.88
2023-04-23T10:34:30.846Z,10.25
2023-04-23T10:37:02.933Z,8.60
2023-04-23T10:39:42.963Z,8.25
2023-04-23T10:42:13.507Z,7.97
2023-04-23T10:47:17.168Z,9.05
2023-04-23T10:49:48.654Z,10.13
2023-04-23T10:52:22.219Z,9.48
2023-04-23T10:55:00.018Z,8.52
2023-04-23T10:57:27.038Z,9.68
2023-04-23T10:59:58.764Z,10.00
2023-04-23T11:02:26.564Z,11.57
2023-04-23T11:04:59.102Z,8.82
2023-04-23T11:07:41.294Z,9.23
2023-04-23T11:10:18.162Z,9.60
2023-04-23T11:12:45.009Z,10.32
2023-04-23T11:15:16.631Z,10.25
2023-04-23T11:17:49.125Z,9.95
2023-04-23T11:20:22.408Z,8.35
2023-04-23T11:22:56.524Z,8.70
2023-04-23T11:25:28.685Z,8.45
2023-04-23T11:28:03.260Z,8.18
2023-04-23T11:30:30.964Z,8.18
2023-04-23T11:33:01.365Z,8.48
2023-04-23T11:35:29.445Z,8.95
2023-04-23T11:37:56.989Z,8.18
2023-04-23T11:40:24.716Z,8.40
2023-04-23T11:42:57.498Z,8.68
2023-04-23T11:45:28.079Z,9.43
2023-04-23T11:47:58.365Z,8.15
2023-04-23T11:50:33.359Z,9.85
2023-04-23T11:53:11.306Z,9.95
2023-04-23T11:55:38.842Z,8.13
2023-04-23T11:58:05.775Z,7.88
2023-04-23T12:00:32.459Z,8.65
2023-04-23T12:03:06.448Z,8.18
2023-04-23T12:08:21.076Z,7.63
2023-04-23T12:11:06.187Z,9.70
2023-04-23T12:13:34.184Z,9.25
2023-04-23T12:16:09.154Z,7.57
2023-04-23T12:18:44.258Z,9.10
2023-04-23T12:21:13.664Z,9.20
2023-04-23T12:23:47.268Z,7.93
2023-04-23T12:26:16.758Z,8.05
2023-04-23T12:29:01.755Z,8.20
2023-04-23T12:31:30.232Z,8.93
2023-04-23T12:34:10.004Z,9.13
2023-04-23T12:36:50.041Z,8.90
2023-04-23T12:39:34.368Z,9.45
2023-04-23T12:44:43.171Z,10.43
2023-04-23T12:47:11.625Z,7.47
2023-04-23T12:49:43.215Z,8.10
2023-04-23T12:52:12.890Z,7.53
2023-04-23T12:54:47.695Z,9.18
2023-04-23T12:59:42.216Z,8.32
2023-04-23T13:02:09.900Z,9.02
2023-04-23T13:04:43.285Z,8.63
2023-04-23T13:07:11.389Z,8.73
2023-04-23T13:09:44.544Z,8.98
2023-04-23T13:12:11.817Z,8.07
2023-04-23T13:17:26.705Z,9.02
2023-04-23T13:25:28.179Z,9.15
2023-04-23T13:27:56.067Z,10.05
2023-04-23T13:30:24.892Z,11.13
2023-04-23T13:32:51.796Z,7.50
2023-04-23T13:35:18.724Z,14.73
2023-04-23T13:37:50.050Z,10.00
2023-04-23T13:40:19.423Z,8.63
2023-04-23T13:42:48.080Z,9.00
2023-04-23T13:45:16.386Z,12.20
2023-04-23T13:47:44.514Z,8.70
2023-04-23T13:50:12.237Z,7.93
2023-04-23T13:52:41.940Z,7.57
2023-04-23T13:55:10.044Z,7.82
2023-04-23T13:57:41.184Z,7.43
2023-04-23T14:00:09.114Z,9.75
2023-04-23T14:02:36.128Z,7.65
2023-04-23T14:05:04.932Z,8.63
2023-04-23T14:07:32.511Z,7.55
2023-04-23T14:09:59.188Z,7.93
2023-04-23T14:12:29.502Z,7.30
2023-04-23T14:14:56.762Z,7.25
2023-04-23T14:17:23.525Z,7.30
2023-04-23T14:19:50.454Z,8.02
2023-04-23T14:22:17.165Z,8.93
2023-04-23T14:24:51.409Z,7.10
2023-04-23T14:27:18.120Z,9.15
2023-04-23T14:30:06.050Z,7.57
2023-04-23T14:32:35.924Z,8.18
2023-04-23T14:35:03.557Z,7.25
2023-04-23T14:37:30.273Z,8.55
2023-04-23T14:39:56.877Z,7.97
2023-04-23T14:42:26.743Z,8.63
2023-04-23T14:45:00.228Z,10.13
2023-04-23T14:47:27.058Z,8.20
2023-04-23T14:49:54.415Z,8.27
2023-04-23T14:52:21.142Z,7.82
2023-04-23T14:54:47.925Z,8.93
2023-04-23T14:57:14.662Z,7.40
2023-04-23T14:59:56.922Z,8.85
2023-04-23T15:02:23.808Z,8.38
2023-04-23T15:04:50.869Z,7.72
2023-04-23T15:07:17.580Z,8.85
2023-04-23T15:09:44.372Z,7.97
2023-04-23T15:13:01.345Z,9.30
2023-04-23T15:16:02.460Z,8.35
2023-04-23T15:18:29.411Z,8.82
2023-04-23T15:20:58.845Z,7.18
2023-04-23T15:23:25.496Z,8.57
2023-04-23T15:25:54.871Z,9.57
2023-04-23T15:28:25.150Z,9.20
2023-04-23T15:30:53.181Z,8.00
2023-04-23T15:33:21.694Z,7.95
2023-04-23T15:35:50.965Z,6.45
2023-04-23T15:38:19.840Z,6.90
2023-04-23T15:40:46.875Z,7.78
2023-04-23T15:43:13.854Z,8.20
2023-04-23T15:45:48.508Z,7.93
2023-04-23T15:48:16.562Z,8.40
2023-04-23T15:50:46.632Z,8.55
2023-04-23T15:53:14.126Z,7.13
2023-04-23T15:55:46.614Z,6.70
2023-04-23T15:58:13.204Z,9.77
2023-04-23T16:00:40.979Z,7.80
2023-04-23T16:03:07.906Z,7.38
2023-04-23T16:05:36.718Z,8.10
2023-04-23T16:08:03.896Z,8.15
2023-04-23T16:10:33.852Z,7.30
2023-04-23T16:13:02.138Z,10.27
2023-04-23T16:15:28.930Z,7.30
2023-04-23T16:18:00.040Z,8.73
2023-04-23T16:20:28.674Z,7.47
2023-04-23T16:22:56.368Z,7.35
2023-04-23T16:25:24.339Z,9.18
2023-04-23T16:27:55.398Z,7.43
2023-04-23T16:30:22.054Z,9.73
2023-04-23T16:32:48.855Z,8.25
2023-04-23T16:35:15.954Z,11.85
2023-04-23T16:37:42.622Z,18.17
2023-04-23T16:40:10.292Z,11.60
2023-04-23T16:42:37.017Z,8.07
2023-04-23T16:45:05.134Z,8.57
2023-04-23T16:47:31.768Z,7.65
2023-04-23T16:49:58.668Z,8.10
2023-04-23T16:52:25.438Z,8.25
2023-04-23T16:54:52.115Z,8.52
2023-04-23T16:57:18.968Z,8.70
2023-04-23T16:59:48.845Z,8.95
2023-04-23T17:02:15.712Z,9.02
2023-04-23T17:04:42.712Z,7.80
2023-04-23T17:07:09.798Z,9.02
2023-04-23T17:09:36.487Z,8.55
2023-04-23T17:12:03.177Z,7.68
2023-04-23T17:14:29.874Z,7.97
2023-04-23T17:16:56.775Z,7.18
2023-04-23T17:19:23.482Z,8.00
2023-04-23T17:21:50.362Z,8.48
2023-04-23T17:24:20.223Z,9.00
2023-04-23T17:26:50.456Z,12.20
2023-04-23T17:29:17.359Z,9.30
2023-04-23T17:31:47.385Z,9.80
2023-04-23T17:34:14.193Z,10.02
2023-04-23T17:36:44.196Z,11.02
2023-04-23T17:39:11.108Z,10.48
2023-04-23T17:41:38.361Z,9.05
2023-04-23T17:44:05.237Z,9.73
2023-04-23T17:46:31.931Z,9.82
2023-04-23T17:49:01.050Z,9.90
2023-04-23T17:51:34.171Z,11.45
2023-04-23T17:54:02.222Z,10.50
2023-04-23T17:56:29.205Z,10.35
2023-04-23T17:58:59.003Z,10.52
2023-04-23T18:01:26.814Z,10.00
2023-04-23T18:03:59.204Z,10.38
2023-04-23T18:06:27.046Z,10.65
2023-04-23T18:08:56.302Z,11.15
2023-04-23T18:11:23.084Z,11.52
2023-04-23T18:13:53.935Z,12.20
2023-04-23T18:16:21.027Z,11.10
2023-04-23T18:18:50.887Z,12.27
2023-04-23T18:21:22.601Z,11.88
2023-04-23T18:23:56.610Z,12.25
2023-04-23T18:26:23.963Z,11.80
2023-04-23T18:28:50.685Z,11.00
2023-04-23T18:31:17.528Z,11.07
2023-04-23T18:34:02.125Z,11.63
2023-04-23T18:39:07.304Z,10.80
2023-04-23T18:41:34.686Z,10.88
2023-04-23T18:44:02.443Z,12.32
2023-04-23T18:46:33.440Z,11.52
2023-04-23T18:49:54.962Z,11.70
2023-04-23T18:52:21.998Z,11.38
2023-04-23T18:54:59.956Z,11.23
2023-04-23T18:57:26.752Z,11.25
2023-04-23T18:59:56.488Z,10.23
2023-04-23T19:02:34.376Z,10.32
2023-04-23T19:05:03.999Z,9.73
2023-04-23T19:07:30.742Z,10.70
2023-04-23T19:09:57.450Z,10.57
2023-04-23T19:12:24.069Z,11.07
2023-04-23T19:14:50.764Z,10.65
2023-04-23T19:17:18.806Z,10.75
2023-04-23T19:19:46.311Z,10.80
2023-04-23T19:22:17.499Z,10.82
2023-04-23T19:24:46.566Z,11.90
2023-04-23T19:27:15.763Z,11.18
2023-04-23T19:29:42.492Z,9.68
2023-04-23T19:32:09.412Z,12.32
2023-04-23T19:34:36.071Z,10.35
2023-04-23T19:37:02.726Z,10.13
2023-04-23T19:39:32.535Z,11.73
2023-04-23T19:41:59.509Z,10.52
2023-04-23T19:47:07.634Z,10.20
2023-04-23T19:49:34.477Z,10.00
2023-04-23T19:52:04.408Z,9.60
2023-04-23T19:59:54.745Z,9.43
2023-04-23T20:02:21.626Z,8.38
2023-04-23T20:04:48.458Z,9.88
2023-04-23T20:07:15.443Z,9.18
2023-04-23T20:09:42.219Z,8.30
2023-04-23T20:12:09.212Z,8.80
2023-04-23T20:20:02.785Z,9.70
2023-04-23T20:22:31.291Z,10.98
2023-04-23T20:25:03.775Z,13.82
2023-04-23T20:27:30.993Z,13.93
2023-04-23T20:29:57.729Z,20.60
2023-04-23T20:32:24.495Z,14.90
2023-04-23T20:34:56.682Z,10.00
2023-04-23T20:37:26.664Z,8.98
2023-04-23T20:39:58.422Z,8.88
2023-04-23T20:42:25.738Z,8.50
2023-04-23T20:45:01.852Z,9.35
2023-04-23T20:47:28.629Z,10.02
2023-04-23T20:49:55.621Z,8.93
2023-04-23T20:52:22.756Z,8.02
2023-04-23T21:05:41.437Z,7.93
2023-04-23T21:08:09.133Z,8.13
2023-04-23T21:10:39.150Z,8.00
2023-04-23T21:13:13.315Z,8.05
2023-04-23T21:31:48.172Z,6.68
2023-04-23T21:34:19.732Z,6.53
2023-04-23T21:36:46.693Z,7.28
2023-04-23T21:39:13.633Z,7.30
2023-04-23T21:41:45.174Z,7.47
2023-04-23T21:49:33.337Z,9.65
2023-04-23T21:52:03.660Z,9.23
2023-04-23T21:54:30.535Z,7.88
2023-04-23T21:56:59.097Z,9.50
2023-04-23T21:59:26.041Z,10.35
2023-04-23T22:01:59.850Z,10.23
2023-04-23T22:04:34.529Z,10.45
2023-04-23T22:07:05.456Z,11.30
2023-04-23T22:09:32.146Z,10.07
2023-04-23T22:12:02.460Z,9.32
2023-04-23T22:14:29.689Z,10.18
2023-04-23T22:16:58.681Z,9.55
2023-04-23T22:19:26.121Z,10.55
2023-04-23T22:21:56.309Z,10.43
2023-04-23T22:24:24.160Z,9.25
2023-04-23T22:27:00.139Z,10.25
2023-04-23T22:29:26.864Z,9.32
2023-04-23T22:31:58.933Z,9.52
2023-04-23T22:34:25.648Z,9.32
2023-04-23T22:39:33.264Z,10.55
2023-04-23T22:41:59.910Z,10.68
2023-04-23T22:44:26.649Z,10.02
2023-04-23T22:46:59.429Z,10.80
2023-04-23T22:49:26.153Z,9.77
2023-04-23T22:51:56.243Z,9.55
2023-04-23T22:54:23.035Z,9.25
2023-04-23T22:56:50.001Z,8.63
2023-04-23T22:59:16.701Z,9.07
2023-04-23T23:01:43.371Z,9.13
2023-04-23T23:04:13.024Z,8.88
2023-04-23T23:06:43.843Z,9.13
2023-04-23T23:09:10.776Z,8.35
2023-04-23T23:11:37.714Z,8.00
2023-04-23T23:14:04.965Z,7.72
2023-04-23T23:16:31.911Z,7.00
2023-04-23T23:18:59.514Z,7.95
2023-04-23T23:21:26.813Z,8.15
2023-04-23T23:24:01.814Z,7.78
2023-04-23T23:26:28.884Z,7.30
2023-04-23T23:28:57.947Z,7.97
2023-04-23T23:31:26.022Z,10.32
2023-04-23T23:34:02.141Z,7.32
2023-04-23T23:36:29.706Z,7.47
2023-04-23T23:39:01.113Z,7.60
2023-04-23T23:41:29.028Z,7.95
2023-04-23T23:43:57.796Z,6.95
2023-04-23T23:46:27.143Z,8.38
2023-04-23T23:48:59.620Z,6.82
2023-04-23T23:51:28.222Z,7.93
2023-04-23T23:53:55.378Z,7.32
2023-04-23T23:56:22.193Z,6.45
2023-04-23T23:58:48.831Z,6.75
